SGAS/ASU METAR and TAF weather

Enter ICAO airport designator
Station Type Date Time Source
SGAS METAR 2019/12/08 19:00 UTC NOAA

SGAS 081900Z 03005KT 7000 RA SCT020 OVC070 22/21 Q1009


Station Type Date Time Source
SGAS Decoded METAR 2019/12/08 19:00 UTC NOAA

Asuncion / Aeropuerto, Paraguay (SGAS) 25-16S 057-38W 101M
Dec 08, 2019 - 02:00 PM EST / 2019.12.08 1900 UTC
Wind: from the NNE (030 degrees) at 6 MPH (5 KT):0
Visibility: 4 mile(s):0
Sky conditions: overcast
Weather: rain
Temperature: 71 F (22 C)
Dew Point: 69 F (21 C)
Relative Humidity: 94%
Pressure (altimeter): 29.80 in. Hg (1009 hPa)
ob: SGAS 081900Z 03005KT 7000 RA SCT020 OVC070 22/21 Q1009
cycle: 19

Station Type Date Time Source
SGAS TAF 2019/12/08 18:58 UTC NOAA

TAF SGAS 081600Z 0818/0918 01012KT 9999 SCT033 TX30/0818Z TN21/0909Z PROB30 0819/0821 09010KT 8000 TS SHRA BKN027 FEW040CB
BECMG 0822/0900 VRB06KT 9999 BKN027
BECMG 0903/0906 9999 TS BKN027 FEW040CB PROB40 0910/0913 8000 TSRA BKN015 FEW040CB

Example: see airport list